Decoded Metar for KNOZ ( in ) (IATA:) | Meteo·Mobile Aviation Weather
aviador You're here:

KNOZ Decoded Metar

in
Report Time2018-09-18 19:59:00
UTC Time2018-09-18 21:00:04
Flight Rules vfr VFR
Wind150° at 11 kt
W.Rank150° ranks 6
Current wind is above 150° avg. (9.1)
Visibility9999 m
Phenomena:N/A
Clouds:N/A
Expected CloudBase > 6,800 ft AGL from Temp-Dew spread
CeilingNone
Temp37°C
Dew Point20°C (37% RH)
Heat Index40.1°C
AAT36.7°C
QNH1008 hPa
Raw Report
KNOZ 181959Z AUTO 15011KT 10SM CLR 37/20 A2977 RMK AO2 SLP028
T03720200=

Extra information for KNOZ:More info

Social comments